West Jersey, Illinois
Current Conditions -  °F | °C
As of 6:55 AM on Thursday 27 Nov 2014 (Local Time) from KC75 Reporting Station
Overcast Overcast  
Wind Chill: 16°   Ceiling: 2300
Heat Index: 24°   Visibility: 7mi
Dew Point: 20°   Wind: 8mph
Humidity: 84%   Direction: 310°NW
Pressure: 30.36"   Gusts: NA
Location:  41.1043°N, 89.8577°W
Report Text: KC75 271255Z AUTO 31007KT 7SM BKN023 OVC042 M04/M06 A3036 RMK AO2 T10421065
Loading
Personal Weather Stations






























Interactive Weather Map New forecast layout! Learn more

10-Day Weather Forecast

Advertisements
Track Severe Weather on mobile